Startline

Calgary Marathon

Calgary, AB - June 1, 2014

EventPlaceGun Time Race #NameDivision Place/GenderPlace/Division Chip Time
Marathon 2/1597 2:19:58 35 HAILU, Gela M2529 2/934 1/109 2:19:57
Marathon 3/1597 2:20:06 36 KIPKOECH, Danniel M2529 3/934 2/109 2:20:05
Marathon 4/1597 2:34:19 15 SALUKOMBO, Makorobondo M2529 4/934 3/109 2:34:19
Marathon 7/1597 2:38:29 1605 ADAM, Ben M2529 7/934 4/109 2:38:27
Marathon 9/1597 2:45:43 6 FEATHERSTONE, Devin M2529 9/934 5/109 2:45:43
Marathon 10/1597 2:47:07 1854 CAMPBELL, Derek M2529 10/934 6/109 2:47:05
Marathon 12/1597 2:50:43 3612 FORSYTH, Graham M2529 12/934 7/109 2:50:39
Marathon 20/1597 2:58:50 3508 WILSON, Keith M2529 19/934 8/109 2:58:47
Marathon 24/1597 3:02:14 2387 HOLT, Jordan M2529 21/934 9/109 3:02:08
Marathon 28/1597 3:05:00 1723 BERNAKEVITCH, Brett M2529 25/934 10/109 3:04:51
Marathon 31/1597 3:06:15 2005 DE BRUIJN, Cliff M2529 28/934 11/109 3:05:55
Marathon 64/1597 3:15:58 3383 TRUMPOUR, David M2529 54/934 12/109 3:15:46
Marathon 83/1597 3:20:39 3072 RAMON, Daniel M2529 69/934 13/109 3:19:48
Marathon 85/1597 3:21:13 3095 RENNICK, Michael M2529 71/934 14/109 3:20:49
Marathon 104/1597 3:25:39 2719 MAK, Nigel M2529 84/934 15/109 3:25:26
Marathon 105/1597 3:25:50 2686 LUKACS, Rob M2529 85/934 16/109 3:25:12
Marathon 106/1597 3:25:58 1885 CHANDLER, Harry M2529 86/934 17/109 3:25:41
Marathon 112/1597 3:26:45 2718 MAK, Alexandre M2529 91/934 18/109 3:26:32
Marathon 115/1597 3:27:07 2122 FAUGHT, Brady M2529 93/934 19/109 3:26:00
Marathon 122/1597 3:28:10 3355 THOMPSON, Max M2529 97/934 20/109 3:27:48
Marathon 139/1597 3:30:45 2172 FREDE, James M2529 109/934 21/109 3:26:54
Marathon 155/1597 3:32:22 2576 KYSELA, Tomas M2529 123/934 22/109 3:31:24
Marathon 171/1597 3:34:49 2030 DEVERE-BENNETT, Noel M2529 135/934 23/109 3:34:09
Marathon 175/1597 3:35:01 3609 HEWARD, Chad M2529 139/934 24/109 3:34:07
Marathon 187/1597 3:36:15 3343 TEMPLETON, James M2529 148/934 25/109 3:35:41
Marathon 193/1597 3:36:59 2022 DENISCHUK, Craig M2529 153/934 26/109 3:36:41
Marathon 210/1597 3:39:13 2552 KOPF, John M2529 168/934 27/109 3:38:59
Marathon 219/1597 3:40:36 1787 BOYCE, Terry M2529 175/934 28/109 3:37:24
Marathon 221/1597 3:40:46 1687 BAULIN, Andrew M2529 177/934 29/109 3:34:31
Marathon 226/1597 3:41:13 1960 COTTER, Kevin M2529 181/934 30/109 3:40:42
Marathon 236/1597 3:42:42 2397 HOWSON, Doug M2529 188/934 31/109 3:41:43
Marathon 259/1597 3:44:26 2941 O'NEILL, Eamonn M2529 202/934 32/109 3:44:15
Marathon 287/1597 3:46:57 2579 LACANILAO, Brian M2529 221/934 33/109 3:44:48
Marathon 305/1597 3:49:43 1791 BRACK, Tyler M2529 234/934 34/109 3:49:16
Marathon 313/1597 3:50:39 2911 NGUYEN, Raymond M2529 240/934 35/109 3:49:08
Marathon 332/1597 3:52:42 2989 PENKALA, Thomas M2529 253/934 36/109 3:47:40
Marathon 341/1597 3:53:20 2828 MEUNIER, Patrick M2529 261/934 37/109 3:51:45
Marathon 352/1597 3:54:34 2031 DEWIT, Matthew M2529 269/934 38/109 3:52:29
Marathon 364/1597 3:55:20 1841 BZDZIUCH, Daniel M2529 277/934 39/109 3:50:18
Marathon 373/1597 3:55:42 1797 BRAR, Harpreet M2529 281/934 40/109 3:54:58
Marathon 376/1597 3:55:45 3554 YURKOWSKI, Adam M2529 284/934 41/109 3:54:13
Marathon 377/1597 3:56:02 1661 BABINEC, Matt M2529 285/934 42/109 3:54:50
Marathon 398/1597 3:57:43 3175 SAPIEHA, Jeff M2529 297/934 43/109 3:57:03
Marathon 406/1597 3:58:10 2750 MATLOOB, Joe M2529 302/934 44/109 3:56:18
Marathon 447/1597 4:00:54 1668 BALASKI, Travis M2529 329/934 45/109 3:59:01
Marathon 454/1597 4:01:22 3528 WONG, Bernard M2529 333/934 46/109 3:59:34
Marathon 480/1597 4:03:34 3058 QUAIFE, Tyler M2529 355/934 47/109 4:01:27
Marathon 516/1597 4:06:55 2872 MOULTON, Kellan M2529 377/934 48/109 4:05:59
Marathon 525/1597 4:07:34 1968 COWLES, Ian M2529 384/934 49/109 4:02:44
Marathon 527/1597 4:07:44 2267 GRIEVE, Cory M2529 386/934 50/109 4:05:10
Marathon 550/1597 4:08:50 3372 TOMASICH, Chris M2529 401/934 51/109 4:07:10
Marathon 589/1597 4:11:40 3640 NELSON, Stephen M2529 428/934 52/109 4:02:13
Marathon 601/1597 4:12:26 3096 RENNICK, Stephen M2529 435/934 53/109 4:12:02
Marathon 613/1597 4:13:06 3480 WENSLEY, Stephen M2529 444/934 54/109 4:08:01
Marathon 625/1597 4:13:52 2340 HEBERT, David M2529 453/934 55/109 4:12:13
Marathon 636/1597 4:14:57 3639 PEPHNSKI, Matthew M2529 458/934 56/109 4:14:01
Marathon 637/1597 4:15:00 2194 GAGNON, Maxime M2529 459/934 57/109 4:13:05
Marathon 662/1597 4:16:50 3641 UIDA, Jonathon M2529 474/934 58/109 4:11:35
Marathon 671/1597 4:17:34 2325 HARVEY, Andrew M2529 481/934 59/109 4:15:07
Marathon 689/1597 4:18:53 2814 MCPHERSON, Dan M2529 496/934 60/109 4:13:29
Marathon 690/1597 4:18:54 3012 PIDERMAN, Jonatham M2529 497/934 61/109 4:15:15
Marathon 701/1597 4:19:36 2360 HETMAN, Benjamin M2529 506/934 62/109 4:18:49
Marathon 708/1597 4:20:10 1931 SUTHERLAND, Kyle M2529 511/934 63/109 4:19:05
Marathon 709/1597 4:20:16 1770 BOTHA, Jacques M2529 512/934 64/109 4:20:16
Marathon 725/1597 4:21:10 2723 MALTMAN, Dave M2529 522/934 65/109 4:19:09
Marathon 726/1597 4:21:13 2326 HASKINS, Michael M2529 523/934 66/109 4:19:18
Marathon 738/1597 4:22:01 2526 KIMMETT, Reid M2529 532/934 67/109 4:17:59
Marathon 771/1597 4:23:48 2794 MCKINNEY, Curtis M2529 546/934 68/109 4:20:44
Marathon 776/1597 4:23:58 2382 HOLLOWAY, Kai M2529 549/934 69/109 4:22:33
Marathon 798/1597 4:25:11 1950 COOLEY, Michael M2529 565/934 70/109 4:19:22
Marathon 805/1597 4:25:30 1851 CAMM, Eric M2529 568/934 71/109 4:21:22
Marathon 813/1597 4:26:08 3592 REGIER, Brent M2529 575/934 72/109 4:20:04
Marathon 842/1597 4:28:35 3402 URNESS, Vincent M2529 592/934 73/109 4:27:54
Marathon 845/1597 4:28:42 3208 SHACKLETON, Adam M2529 594/934 74/109 4:26:36
Marathon 853/1597 4:29:23 2464 JOHNSON, Michael M2529 597/934 75/109 4:26:19
Marathon 878/1597 4:31:39 2983 PAULDEN, Mike M2529 609/934 76/109 4:30:56
Marathon 883/1597 4:31:57 3615 GERVACIO, Raymond M2529 611/934 77/109 4:26:19
Marathon 886/1597 4:32:04 3102 RICHARD, Eric M2529 614/934 78/109 4:28:39
Marathon 902/1597 4:32:58 3082 REDERBURG, Todd M2529 624/934 79/109 4:31:09
Marathon 934/1597 4:35:59 2158 FOLAN, Dermot M2529 637/934 80/109 4:32:28
Marathon 940/1597 4:37:19 3433 VISSCHER, Kory M2529 641/934 81/109 4:35:38
Marathon 951/1597 4:38:17 3474 WEI, Cen M2529 649/934 82/109 4:32:22
Marathon 997/1597 4:42:32 2029 DEVEAU, Dustin M2529 679/934 83/109 4:38:46
Marathon 1008/1597 4:43:40 2942 ONG, Richard M2529 688/934 84/109 4:40:03
Marathon 1010/1597 4:43:42 3501 WILLIAMS, Brent M2529 689/934 85/109 4:41:13
Marathon 1045/1597 4:48:07 1838 BYMAN, Erik M2529 707/934 86/109 4:43:15
Marathon 1059/1597 4:49:37 1967 COWLES, Hugh M2529 713/934 87/109 4:44:44
Marathon 1065/1597 4:50:04 2884 MURPHY, Kevin M2529 717/934 88/109 4:47:19
Marathon 1094/1597 4:52:03 3517 WINGER, Bryan M2529 732/934 89/109 4:48:09
Marathon 1129/1597 4:55:06 3250 SMITH, Brendan M2529 747/934 90/109 4:52:52
Marathon 1135/1597 4:56:35 3019 PITTENDREIGH, Cory M2529 750/934 91/109 4:54:29
Marathon 1151/1597 4:58:30 2804 MCMULLEN, Christopher M2529 756/934 92/109 4:53:09
Marathon 1152/1597 4:58:31 1652 ASTLE, Chris M2529 757/934 93/109 4:55:43
Marathon 1158/1597 4:58:40 2096 ELLSWORTH, Liam M2529 759/934 94/109 4:55:13
Marathon 1162/1597 4:59:22 3586 LEFEBVRE, Charles M2529 760/934 95/109 4:56:19
Marathon 1164/1597 4:59:40 2299 HAMILTON, Mitch M2529 762/934 96/109 4:57:06
Marathon 1210/1597 5:06:05 2445 JANG, Jaesoo M2529 783/934 97/109 4:59:49
Marathon 1216/1597 5:06:40 3384 TRUONG, Leo M2529 788/934 98/109 4:59:10
Marathon 1247/1597 5:09:14 2772 MCDONALD, Troy M2529 798/934 99/109 5:04:13
Marathon 1266/1597 5:11:14 1914 CHRONIK, Justin M2529 804/934 100/109 5:09:01
Marathon 1316/1597 5:17:26 3224 SIEWERT, Rob M2529 831/934 101/109 5:13:36
Marathon 1366/1597 5:26:16 2298 HAMILTON, Chris M2529 852/934 102/109 5:22:54
Marathon 1416/1597 5:34:49 2017 DELONG, Kyle M2529 868/934 103/109 5:29:52
Marathon 1422/1597 5:35:53 2787 MCGUFFIN, Rogan M2529 871/934 104/109 5:29:49
Marathon 1441/1597 5:37:28 1816 BUCHANAN, Cody M2529 881/934 105/109 5:36:39
Marathon 1499/1597 5:48:02 1602 ABBOTT, Justin M2529 902/934 106/109 5:43:02
Marathon 1509/1597 5:51:44 2588 LAMB, Cole M2529 908/934 107/109 5:46:25
Marathon 1558/1597 6:09:12 3113 RIFFEL, Casey M2529 922/934 108/109 6:02:59
Marathon 1559/1597 6:09:26 2727 MANABAT, Sheldon M2529 923/934 109/109 6:05:17
Marathon 3582 KERR, Jim M2529    
Marathon 3045 PROBE, Ryan M2529    
Marathon 3291 STANLEY, Jake M2529    
Marathon 3460 WASYLCIW, Bobby M2529